createdAt,value
2023-05-04T00:00:15.921Z,100993.94
2023-05-04T00:02:45.672Z,100996.50
2023-05-04T00:05:15.275Z,100998.53
2023-05-04T00:07:47.375Z,100995.16
2023-05-04T00:10:17.439Z,100989.72
2023-05-04T00:12:47.016Z,100993.94
2023-05-04T00:15:16.763Z,100986.66
2023-05-04T00:17:46.357Z,100990.97
2023-05-04T00:20:16.423Z,100986.31
2023-05-04T00:22:48.544Z,100978.97
2023-05-04T00:25:18.051Z,100981.31
2023-05-04T00:27:47.560Z,100984.53
2023-05-04T00:30:17.701Z,100981.66
2023-05-04T00:32:47.229Z,100980.75
2023-05-04T00:35:20.552Z,100979.03
2023-05-04T00:37:52.662Z,100973.84
2023-05-04T00:40:22.593Z,100978.06
2023-05-04T00:42:52.212Z,100970.84
2023-05-04T00:45:21.903Z,100977.75
2023-05-04T00:47:52.412Z,100974.09
2023-05-04T00:50:22.542Z,100980.94
2023-05-04T00:52:58.290Z,100973.63
2023-05-04T00:55:28.128Z,100968.06
2023-05-04T00:57:57.701Z,100967.84
2023-05-04T01:00:27.421Z,100977.09
2023-05-04T01:02:57.692Z,100981.75
2023-05-04T01:05:33.146Z,100975.25
2023-05-04T01:08:09.499Z,100978.34
2023-05-04T01:10:46.387Z,100979.81
2023-05-04T01:13:18.389Z,100983.34
2023-05-04T01:15:48.715Z,100987.44
2023-05-04T01:18:18.332Z,100985.78
2023-05-04T01:20:48.037Z,100994.25
2023-05-04T01:23:20.540Z,100995.59
2023-05-04T01:26:05.590Z,100993.88
2023-05-04T01:28:41.715Z,100991.22
2023-05-04T01:31:17.342Z,100985.78
2023-05-04T01:33:47.831Z,100988.03
2023-05-04T01:36:17.751Z,100979.41
2023-05-04T01:38:50.243Z,100977.56
2023-05-04T01:41:20.016Z,100978.16
2023-05-04T01:43:49.680Z,100983.53
2023-05-04T01:46:19.245Z,100981.50
2023-05-04T01:48:48.828Z,100983.94
2023-05-04T01:51:18.334Z,100973.53
2023-05-04T01:53:50.424Z,100971.97
2023-05-04T01:56:19.993Z,100983.94
2023-05-04T01:58:49.514Z,100981.03
2023-05-04T02:01:19.064Z,100985.28
2023-05-04T02:03:48.689Z,100985.28
2023-05-04T02:06:18.309Z,100982.69
2023-05-04T02:08:51.187Z,100985.41
2023-05-04T02:11:21.210Z,100979.34
2023-05-04T02:13:50.746Z,100981.03
2023-05-04T02:16:20.366Z,100987.91
2023-05-04T02:18:49.928Z,100980.59
2023-05-04T02:21:19.750Z,100976.28
2023-05-04T02:23:52.001Z,100978.94
2023-05-04T02:26:21.627Z,100976.00
2023-05-04T02:28:51.184Z,100978.50
2023-05-04T02:31:20.912Z,100968.88
2023-05-04T02:33:50.497Z,100970.72
2023-05-04T02:36:20.039Z,100972.16
2023-05-04T02:38:52.684Z,100967.81
2023-05-04T02:41:22.195Z,100984.06
2023-05-04T02:43:51.828Z,100970.31
2023-05-04T02:46:22.294Z,100974.31
2023-05-04T02:48:51.892Z,100973.44
2023-05-04T02:51:21.972Z,100972.75
2023-05-04T02:53:54.051Z,100974.16
2023-05-04T02:56:24.455Z,100980.84
2023-05-04T02:58:54.036Z,100974.66
2023-05-04T03:01:23.656Z,100976.22
2023-05-04T03:03:53.232Z,100975.56
2023-05-04T03:06:22.749Z,100976.22
2023-05-04T03:08:54.884Z,100976.81
2023-05-04T03:11:24.485Z,100978.59
2023-05-04T03:13:54.018Z,100976.41
2023-05-04T03:16:23.761Z,100981.25
2023-05-04T03:21:36.737Z,100978.00
2023-05-04T03:24:09.560Z,100981.00
2023-05-04T03:26:39.103Z,100981.72
2023-05-04T03:29:08.640Z,100981.78
2023-05-04T03:31:38.226Z,100983.31
2023-05-04T03:34:09.798Z,100991.66
2023-05-04T03:36:39.330Z,100987.19
2023-05-04T03:39:11.473Z,100982.66
2023-05-04T03:41:41.054Z,100984.31
2023-05-04T03:44:10.816Z,100984.34
2023-05-04T03:46:40.400Z,100987.34
2023-05-04T03:49:10.031Z,100991.38
2023-05-04T03:51:39.673Z,100986.72
2023-05-04T03:54:11.914Z,100994.84
2023-05-04T03:56:41.418Z,100993.81
2023-05-04T03:59:11.051Z,101002.66
2023-05-04T04:01:40.635Z,100999.44
2023-05-04T04:04:10.178Z,101006.69
2023-05-04T04:06:41.936Z,101008.06
2023-05-04T04:09:16.121Z,101008.84
2023-05-04T04:11:45.709Z,101015.31
2023-05-04T04:14:16.297Z,101020.56
2023-05-04T04:16:46.002Z,101013.53
2023-05-04T04:19:15.574Z,101020.75
2023-05-04T04:21:45.255Z,101028.38
2023-05-04T04:24:17.386Z,101015.41
2023-05-04T04:26:47.076Z,101015.19
2023-05-04T04:29:16.647Z,101010.13
2023-05-04T04:31:48.987Z,101022.66
2023-05-04T04:34:18.881Z,101010.13
2023-05-04T04:36:48.400Z,101013.78
2023-05-04T04:39:20.832Z,101016.31
2023-05-04T04:41:50.556Z,101014.16
2023-05-04T04:44:20.940Z,101020.31
2023-05-04T04:46:50.547Z,101017.22
2023-05-04T04:49:20.542Z,101036.31
2023-05-04T04:51:50.579Z,101032.00
2023-05-04T04:54:22.678Z,101034.50
2023-05-04T04:56:52.204Z,101043.31
2023-05-04T04:59:24.975Z,101029.66
2023-05-04T05:01:54.702Z,101029.50
2023-05-04T05:04:25.384Z,101024.22
2023-05-04T05:06:55.005Z,101022.47
2023-05-04T05:09:27.548Z,101014.53
2023-05-04T05:11:57.153Z,101010.16
2023-05-04T05:14:27.664Z,101011.03
2023-05-04T05:16:57.723Z,101016.44
2023-05-04T05:19:27.711Z,101019.38
2023-05-04T05:21:57.258Z,101023.03
2023-05-04T05:24:29.386Z,101016.09
2023-05-04T05:26:59.162Z,101020.34
2023-05-04T05:29:28.739Z,101028.19
2023-05-04T05:31:58.325Z,101027.13
2023-05-04T05:34:27.921Z,101031.31
2023-05-04T05:36:57.456Z,101022.69
2023-05-04T05:39:29.584Z,101019.63
2023-05-04T05:42:00.222Z,101025.50
2023-05-04T05:44:30.043Z,101029.63
2023-05-04T05:46:59.630Z,101041.19
2023-05-04T05:49:29.154Z,101027.69
2023-05-04T05:51:59.184Z,101039.94
2023-05-04T05:54:33.307Z,101040.34
2023-05-04T05:57:02.964Z,101047.81
2023-05-04T05:59:32.506Z,101039.88
2023-05-04T06:02:03.527Z,101048.19
2023-05-04T06:04:33.084Z,101038.31
2023-05-04T06:07:02.691Z,101037.28
2023-05-04T06:09:35.128Z,101047.47
2023-05-04T06:12:06.534Z,101043.38
2023-05-04T06:14:36.250Z,101045.22
2023-05-04T06:17:05.786Z,101049.97
2023-05-04T06:19:38.335Z,101048.72
2023-05-04T06:22:08.429Z,101060.78
2023-05-04T06:24:40.560Z,101053.34
2023-05-04T06:27:10.078Z,101052.09
2023-05-04T06:29:41.515Z,101044.34
2023-05-04T06:32:11.307Z,101047.34
2023-05-04T06:34:41.104Z,101052.72
2023-05-04T06:37:14.012Z,101056.69
2023-05-04T06:39:46.979Z,101049.84
2023-05-04T06:42:16.549Z,101054.03
2023-05-04T06:44:46.128Z,101057.66
2023-05-04T06:47:15.865Z,101054.09
2023-05-04T06:49:45.435Z,101051.84
2023-05-04T06:52:15.173Z,101044.63
2023-05-04T06:54:47.312Z,101056.88
2023-05-04T06:57:16.852Z,101051.31
2023-05-04T06:59:46.661Z,101056.84
2023-05-04T07:02:16.533Z,101061.00
2023-05-04T07:04:46.040Z,101052.06
2023-05-04T07:07:15.866Z,101045.53
2023-05-04T07:09:48.909Z,101046.19
2023-05-04T07:12:18.795Z,101043.38
2023-05-04T07:14:48.362Z,101053.66
2023-05-04T07:17:17.915Z,101056.03
2023-05-04T07:19:50.062Z,101048.50
2023-05-04T07:22:21.000Z,101049.06
2023-05-04T07:24:53.133Z,101047.31
2023-05-04T07:27:22.677Z,101044.44
2023-05-04T07:29:52.899Z,101037.28
2023-05-04T07:32:22.615Z,101048.22
2023-05-04T07:34:52.239Z,101038.59
2023-05-04T07:37:21.896Z,101036.88
2023-05-04T07:39:54.161Z,101036.31
2023-05-04T07:42:23.727Z,101033.47
2023-05-04T07:44:54.888Z,101028.28
2023-05-04T07:47:24.747Z,101022.38
2023-05-04T07:49:54.455Z,101031.38
2023-05-04T07:52:24.025Z,101020.22
2023-05-04T07:54:57.687Z,101038.44
2023-05-04T07:57:27.536Z,101026.38
2023-05-04T07:59:57.585Z,101023.91
2023-05-04T08:02:27.345Z,101025.38
2023-05-04T08:04:57.061Z,101027.25
2023-05-04T08:07:26.842Z,101019.00
2023-05-04T08:09:59.007Z,101013.00
2023-05-04T08:12:28.910Z,101011.75
2023-05-04T08:14:58.492Z,101016.75
2023-05-04T08:17:28.509Z,101023.63
2023-05-04T08:19:59.179Z,101018.69
2023-05-04T08:22:28.715Z,101002.06
2023-05-04T08:25:00.868Z,101016.69
2023-05-04T08:27:30.494Z,101008.59
2023-05-04T08:30:00.370Z,101011.16
2023-05-04T08:32:32.531Z,101014.41
2023-05-04T08:35:02.881Z,101008.75
2023-05-04T08:37:32.808Z,101013.16
2023-05-04T08:40:05.756Z,101013.41
2023-05-04T08:42:36.579Z,101006.91
2023-05-04T08:45:06.563Z,101001.38
2023-05-04T08:47:36.325Z,101012.03
2023-05-04T08:50:07.649Z,101005.84
2023-05-04T08:52:39.644Z,101006.00
2023-05-04T08:55:14.772Z,100998.09
2023-05-04T08:57:45.710Z,100984.72
2023-05-04T09:00:19.178Z,100996.66
2023-05-04T09:02:49.912Z,100976.31
2023-05-04T09:05:19.952Z,100993.69
2023-05-04T09:07:51.240Z,100992.31
2023-05-04T09:10:23.626Z,100985.00
2023-05-04T09:12:53.796Z,100988.97
2023-05-04T09:15:24.289Z,100998.06
2023-05-04T09:18:05.505Z,100990.94
2023-05-04T09:20:47.054Z,100994.13
2023-05-04T09:23:18.276Z,100982.69
2023-05-04T09:25:55.244Z,100987.69
2023-05-04T09:28:36.392Z,100988.50
2023-05-04T09:31:06.389Z,100993.84
2023-05-04T09:33:37.136Z,100973.44
2023-05-04T09:36:17.212Z,100975.56
2023-05-04T09:38:46.873Z,100978.16
2023-05-04T09:41:19.969Z,100971.09
2023-05-04T09:43:49.491Z,100974.91
2023-05-04T09:46:20.151Z,100965.41
2023-05-04T09:48:57.030Z,100969.00
2023-05-04T09:51:28.356Z,100967.78
2023-05-04T09:53:59.767Z,100974.56
2023-05-04T09:56:44.829Z,100961.97
2023-05-04T09:59:15.511Z,100968.00
2023-05-04T10:01:46.264Z,100969.97
2023-05-04T10:04:16.432Z,100961.34
2023-05-04T10:06:46.356Z,100965.88
2023-05-04T10:09:16.834Z,100959.81
2023-05-04T10:11:48.976Z,100959.97
2023-05-04T10:14:18.650Z,100947.13
2023-05-04T10:16:57.278Z,100944.91
2023-05-04T10:19:42.134Z,100949.50
2023-05-04T10:22:27.244Z,100952.88
2023-05-04T10:25:20.863Z,100945.63
2023-05-04T10:28:03.804Z,100943.16
2023-05-04T10:30:33.679Z,100945.66
2023-05-04T10:33:03.400Z,100943.28
2023-05-04T10:35:33.109Z,100924.88
2023-05-04T10:38:02.715Z,100922.19
2023-05-04T10:40:37.865Z,100919.06
2023-05-04T10:43:11.777Z,100914.75
2023-05-04T10:45:42.858Z,100911.38
2023-05-04T10:48:12.923Z,100912.13
2023-05-04T10:50:46.595Z,100905.84
2023-05-04T10:53:17.763Z,100902.47
2023-05-04T10:55:49.211Z,100896.28
2023-05-04T10:58:31.662Z,100893.53
2023-05-04T11:01:01.286Z,100899.28
2023-05-04T11:03:42.243Z,100890.22
2023-05-04T11:06:19.632Z,100883.88
2023-05-04T11:09:02.804Z,100884.06
2023-05-04T11:11:32.399Z,100887.19
2023-05-04T11:14:05.165Z,100876.50
2023-05-04T11:16:34.739Z,100887.13
2023-05-04T11:19:12.615Z,100865.34
2023-05-04T11:21:43.535Z,100854.28
2023-05-04T11:24:13.275Z,100852.81
2023-05-04T11:26:51.063Z,100848.75
2023-05-04T11:29:30.514Z,100849.81
2023-05-04T11:32:00.093Z,100851.41
2023-05-04T11:34:29.699Z,100844.97
2023-05-04T11:36:59.494Z,100837.44
2023-05-04T11:39:29.228Z,100840.09
2023-05-04T11:42:01.137Z,100835.03
2023-05-04T11:44:33.772Z,100835.66
2023-05-04T11:47:03.481Z,100824.38
2023-05-04T11:49:34.071Z,100825.22
2023-05-04T11:52:09.946Z,100821.84
2023-05-04T11:54:39.755Z,100829.72
2023-05-04T11:57:09.319Z,100823.41
2023-05-04T11:59:51.211Z,100821.59
2023-05-04T12:02:21.680Z,100830.97
2023-05-04T12:04:51.343Z,100824.06
2023-05-04T12:07:21.139Z,100821.91
2023-05-04T12:09:51.871Z,100822.16
2023-05-04T12:12:22.324Z,100827.59
2023-05-04T12:14:57.065Z,100822.56
2023-05-04T12:17:26.852Z,100811.63
2023-05-04T12:19:58.225Z,100814.38
2023-05-04T12:22:33.075Z,100806.03
2023-05-04T12:25:03.456Z,100805.81
2023-05-04T12:27:33.125Z,100809.84
2023-05-04T12:32:39.658Z,100795.44
2023-05-04T12:35:09.962Z,100791.09
2023-05-04T12:37:39.661Z,100783.72
2023-05-04T12:40:27.178Z,100798.78
2023-05-04T12:42:57.591Z,100792.34
2023-05-04T12:45:29.710Z,100783.47
2023-05-04T12:47:59.263Z,100780.72
2023-05-04T12:50:28.813Z,100774.00
2023-05-04T12:52:58.444Z,100785.66
2023-05-04T12:55:27.970Z,100782.72
2023-05-04T12:57:57.526Z,100771.66
2023-05-04T13:00:31.458Z,100776.31
2023-05-04T13:03:01.223Z,100772.78
2023-05-04T13:05:31.089Z,100782.78
2023-05-04T13:08:01.105Z,100769.63
2023-05-04T13:10:30.771Z,100777.50
2023-05-04T13:13:00.336Z,100768.63
2023-05-04T13:15:32.521Z,100765.31
2023-05-04T13:18:02.234Z,100756.28
2023-05-04T13:20:31.773Z,100765.16
2023-05-04T13:23:01.308Z,100765.59
2023-05-04T13:25:30.805Z,100765.66
2023-05-04T13:28:00.547Z,100749.91
2023-05-04T13:30:32.768Z,100750.03
2023-05-04T13:33:07.639Z,100741.75
2023-05-04T13:35:43.782Z,100744.81
2023-05-04T13:38:13.374Z,100724.50
2023-05-04T13:40:42.943Z,100728.84
2023-05-04T13:43:12.488Z,100731.94
2023-05-04T13:45:44.567Z,100722.06
2023-05-04T13:48:14.140Z,100720.13
2023-05-04T13:50:43.653Z,100727.34
2023-05-04T13:53:13.789Z,100720.63
2023-05-04T13:55:43.440Z,100717.03
2023-05-04T13:58:12.964Z,100722.66
2023-05-04T14:00:45.081Z,100713.06
2023-05-04T14:03:14.684Z,100709.69
2023-05-04T14:05:44.477Z,100702.97
2023-05-04T14:08:13.983Z,100707.56
2023-05-04T14:10:43.485Z,100697.47
2023-05-04T14:13:13.100Z,100699.69
2023-05-04T14:15:45.278Z,100695.41
2023-05-04T14:18:14.817Z,100697.22
2023-05-04T14:20:44.324Z,100692.66
2023-05-04T14:23:13.873Z,100694.94
2023-05-04T14:25:44.216Z,100685.72
2023-05-04T14:28:15.288Z,100681.41
2023-05-04T14:30:47.437Z,100675.69
2023-05-04T14:33:17.007Z,100682.84
2023-05-04T14:35:48.346Z,100673.06
2023-05-04T14:38:18.248Z,100671.53
2023-05-04T14:40:49.533Z,100664.06
2023-05-04T14:43:19.351Z,100664.84
2023-05-04T14:45:51.586Z,100673.50
2023-05-04T14:48:23.310Z,100673.22
2023-05-04T14:50:52.862Z,100669.16
2023-05-04T14:53:22.493Z,100667.41
2023-05-04T14:55:52.494Z,100664.44
2023-05-04T14:58:22.064Z,100667.63
2023-05-04T15:00:54.245Z,100662.53
2023-05-04T15:03:24.093Z,100666.00
2023-05-04T15:05:53.718Z,100666.38
2023-05-04T15:08:23.219Z,100666.00
2023-05-04T15:10:52.807Z,100655.00
2023-05-04T15:13:22.313Z,100656.44
2023-05-04T15:15:54.535Z,100652.03
2023-05-04T15:18:24.250Z,100647.38
2023-05-04T15:20:53.795Z,100644.28
2023-05-04T15:23:24.573Z,100647.53
2023-05-04T15:25:54.151Z,100645.31
2023-05-04T15:28:23.654Z,100645.66
2023-05-04T15:30:56.467Z,100646.69
2023-05-04T15:33:25.982Z,100642.63
2023-05-04T15:35:55.553Z,100644.63
2023-05-04T15:38:25.099Z,100640.25
2023-05-04T15:40:54.655Z,100632.44
2023-05-04T15:43:24.227Z,100634.94
2023-05-04T15:45:56.428Z,100631.41
2023-05-04T15:48:26.529Z,100632.00
2023-05-04T15:50:56.301Z,100623.97
2023-05-04T15:53:25.913Z,100626.06
2023-05-04T15:55:55.568Z,100621.91
2023-05-04T15:58:25.098Z,100622.78
2023-05-04T16:00:59.361Z,100623.03
2023-05-04T16:03:28.924Z,100623.34
2023-05-04T16:05:58.566Z,100611.28
2023-05-04T16:08:28.215Z,100612.59
2023-05-04T16:10:58.182Z,100621.16
2023-05-04T16:13:27.730Z,100605.22
2023-05-04T16:16:00.805Z,100605.69
2023-05-04T16:18:30.941Z,100609.19
2023-05-04T16:21:00.524Z,100608.50
2023-05-04T16:23:31.242Z,100601.31
2023-05-04T16:26:00.997Z,100599.72
2023-05-04T16:28:30.843Z,100596.41
2023-05-04T16:31:02.979Z,100587.63
2023-05-04T16:33:32.672Z,100588.78
2023-05-04T16:36:02.612Z,100583.47
2023-05-04T16:38:32.156Z,100583.69
2023-05-04T16:41:01.802Z,100581.13
2023-05-04T16:43:32.086Z,100579.06
2023-05-04T16:46:04.941Z,100577.06
2023-05-04T16:48:34.630Z,100577.94
2023-05-04T16:51:04.140Z,100569.75
2023-05-04T16:53:33.704Z,100575.28
2023-05-04T16:56:03.225Z,100576.63
2023-05-04T16:58:32.822Z,100572.50
2023-05-04T17:01:04.998Z,100574.97
2023-05-04T17:03:35.756Z,100569.16
2023-05-04T17:06:05.366Z,100574.47
2023-05-04T17:08:35.078Z,100574.56
2023-05-04T17:11:04.605Z,100573.91
2023-05-04T17:13:34.134Z,100569.75
2023-05-04T17:16:06.516Z,100571.41
2023-05-04T17:18:36.052Z,100573.34
2023-05-04T17:21:05.639Z,100570.91
2023-05-04T17:23:35.264Z,100570.16
2023-05-04T17:28:39.723Z,100573.91
2023-05-04T17:31:12.849Z,100574.06
2023-05-04T17:33:42.490Z,100577.66
2023-05-04T17:36:12.467Z,100567.09
2023-05-04T17:38:43.689Z,100564.56
2023-05-04T17:41:13.378Z,100567.38
2023-05-04T17:43:42.970Z,100565.75
2023-05-04T17:46:15.350Z,100570.28
2023-05-04T17:48:46.121Z,100562.41
2023-05-04T17:51:17.000Z,100576.66
2023-05-04T17:53:46.633Z,100574.09
2023-05-04T17:56:16.219Z,100575.97
2023-05-04T17:58:45.783Z,100568.09
2023-05-04T18:01:18.522Z,100580.56
2023-05-04T18:03:48.243Z,100576.25
2023-05-04T18:06:17.844Z,100582.44
2023-05-04T18:08:47.363Z,100576.41
2023-05-04T18:11:16.887Z,100581.84
2023-05-04T18:13:46.411Z,100585.44
2023-05-04T18:16:18.585Z,100590.84
2023-05-04T18:18:48.157Z,100588.31
2023-05-04T18:21:17.754Z,100588.41
2023-05-04T18:23:47.508Z,100592.94
2023-05-04T18:26:22.878Z,100593.94
2023-05-04T18:28:53.055Z,100601.97
2023-05-04T18:31:25.836Z,100602.91
2023-05-04T18:33:55.506Z,100595.88
2023-05-04T18:36:25.028Z,100604.72
2023-05-04T18:38:54.657Z,100594.22
2023-05-04T18:41:24.142Z,100595.16
2023-05-04T18:43:55.945Z,100602.22
2023-05-04T18:46:28.183Z,100601.41
2023-05-04T18:48:57.782Z,100599.69
2023-05-04T18:51:28.985Z,100603.13
2023-05-04T18:53:58.573Z,100600.47
2023-05-04T18:56:28.404Z,100606.72
2023-05-04T18:58:57.933Z,100595.31
2023-05-04T19:01:30.268Z,100606.81
2023-05-04T19:03:59.900Z,100607.75
2023-05-04T19:06:29.598Z,100599.78
2023-05-04T19:08:59.169Z,100599.69
2023-05-04T19:11:28.846Z,100606.78
2023-05-04T19:13:59.018Z,100607.72
2023-05-04T19:16:31.348Z,100606.97
2023-05-04T19:19:00.921Z,100610.56
2023-05-04T19:21:30.593Z,100607.09
2023-05-04T19:24:00.297Z,100603.56
2023-05-04T19:26:30.006Z,100602.69
2023-05-04T19:28:59.557Z,100606.25
2023-05-04T19:31:31.846Z,100609.81
2023-05-04T19:34:01.407Z,100608.97
2023-05-04T19:36:30.936Z,100608.09
2023-05-04T19:39:00.672Z,100601.09
2023-05-04T19:41:30.270Z,100596.72
2023-05-04T19:43:59.825Z,100597.59
2023-05-04T19:46:32.538Z,100597.59
2023-05-04T19:49:02.097Z,100588.81
2023-05-04T19:51:31.655Z,100593.22
2023-05-04T19:54:01.248Z,100587.06
2023-05-04T19:56:30.823Z,100590.56
2023-05-04T19:59:00.696Z,100597.63
2023-05-04T20:01:33.003Z,100587.06
2023-05-04T20:04:02.711Z,100580.00
2023-05-04T20:06:32.289Z,100582.69
2023-05-04T20:09:01.828Z,100580.03
2023-05-04T20:11:31.404Z,100576.53
2023-05-04T20:14:01.147Z,100574.78
2023-05-04T20:16:33.283Z,100580.06
2023-05-04T20:19:04.065Z,100582.69
2023-05-04T20:21:33.949Z,100580.94
2023-05-04T20:24:04.268Z,100573.03
2023-05-04T20:26:33.837Z,100568.63
2023-05-04T20:29:03.483Z,100581.81
2023-05-04T20:31:35.860Z,100577.44
2023-05-04T20:34:05.429Z,100577.44
2023-05-04T20:36:34.990Z,100580.91
2023-05-04T20:39:06.855Z,100578.25
2023-05-04T20:41:36.665Z,100573.88
2023-05-04T20:44:06.437Z,100563.28
2023-05-04T20:46:39.024Z,100570.31
2023-05-04T20:49:09.112Z,100562.38
2023-05-04T20:51:39.638Z,100564.09
2023-05-04T20:54:09.516Z,100562.31
2023-05-04T20:56:39.151Z,100561.38
2023-05-04T20:59:08.696Z,100564.88
2023-05-04T21:01:40.938Z,100563.97
2023-05-04T21:04:10.733Z,100559.53
2023-05-04T21:06:40.286Z,100565.66
2023-05-04T21:09:10.704Z,100562.13
2023-05-04T21:11:40.913Z,100563.00
2023-05-04T21:14:10.504Z,100565.66
2023-05-04T21:16:42.584Z,100559.47
2023-05-04T21:19:12.128Z,100554.16
2023-05-04T21:21:42.517Z,100558.59
2023-05-04T21:24:16.408Z,100556.78
2023-05-04T21:26:46.115Z,100561.13
2023-05-04T21:29:15.858Z,100561.13
2023-05-04T21:31:48.005Z,100566.41
2023-05-04T21:34:17.628Z,100564.69
2023-05-04T21:36:47.210Z,100561.09
2023-05-04T21:39:17.191Z,100558.41
2023-05-04T21:41:46.764Z,100548.72
2023-05-04T21:44:16.428Z,100553.13
2023-05-04T21:46:48.547Z,100546.16
2023-05-04T21:49:18.065Z,100538.22
2023-05-04T21:51:47.624Z,100540.00
2023-05-04T21:54:17.154Z,100537.31
2023-05-04T21:56:46.733Z,100546.09
2023-05-04T21:59:16.304Z,100546.06
2023-05-04T22:01:48.495Z,100536.31
2023-05-04T22:04:18.085Z,100532.66
2023-05-04T22:06:48.409Z,100532.50
2023-05-04T22:09:19.185Z,100529.81
2023-05-04T22:11:49.696Z,100530.63
2023-05-04T22:14:19.413Z,100533.25
2023-05-04T22:16:53.034Z,100527.09
2023-05-04T22:19:22.651Z,100528.81
2023-05-04T22:21:52.275Z,100532.41
2023-05-04T22:24:21.882Z,100534.16
2023-05-04T22:26:51.393Z,100533.25
2023-05-04T22:29:20.966Z,100529.66
2023-05-04T22:31:53.056Z,100526.94
2023-05-04T22:34:22.620Z,100527.78
2023-05-04T22:36:52.130Z,100522.56
2023-05-04T22:39:22.217Z,100518.97
2023-05-04T22:41:51.786Z,100515.41
2023-05-04T22:44:21.380Z,100511.91
2023-05-04T22:46:53.641Z,100510.09
2023-05-04T22:49:23.188Z,100508.25
2023-05-04T22:51:52.722Z,100504.63
2023-05-04T22:54:22.298Z,100508.00
2023-05-04T22:56:51.896Z,100516.69
2023-05-04T22:59:21.484Z,100511.47
2023-05-04T23:01:53.679Z,100509.69
2023-05-04T23:04:23.554Z,100508.75
2023-05-04T23:06:53.107Z,100505.22
2023-05-04T23:09:22.716Z,100506.06
2023-05-04T23:11:52.334Z,100508.66
2023-05-04T23:14:21.845Z,100507.69
2023-05-04T23:16:54.176Z,100515.59
2023-05-04T23:19:23.659Z,100512.00
2023-05-04T23:21:53.202Z,100514.63
2023-05-04T23:24:22.729Z,100511.97
2023-05-04T23:26:52.482Z,100498.94
2023-05-04T23:29:22.132Z,100505.81
2023-05-04T23:31:54.294Z,100513.44
2023-05-04T23:34:23.838Z,100504.66
2023-05-04T23:36:55.912Z,100499.28
2023-05-04T23:39:25.377Z,100500.16
2023-05-04T23:41:58.430Z,100496.53
2023-05-04T23:44:28.186Z,100493.84
2023-05-04T23:47:00.288Z,100499.22
2023-05-04T23:49:29.785Z,100491.44
2023-05-04T23:51:59.339Z,100494.91
2023-05-04T23:54:28.961Z,100492.13
2023-05-04T23:56:58.895Z,100490.25
2023-05-04T23:59:29.131Z,100493.75
